createdAt,value
2022-09-11T00:02:27.818Z,0
2022-09-11T00:08:47.841Z,0
2022-09-11T00:15:10.853Z,0
2022-09-11T00:21:30.752Z,0
2022-09-11T00:27:53.833Z,0
2022-09-11T00:34:13.791Z,0
2022-09-11T00:40:36.731Z,0
2022-09-11T00:46:56.785Z,0
2022-09-11T00:53:19.769Z,0
2022-09-11T00:59:39.793Z,0
2022-09-11T01:06:02.881Z,0
2022-09-11T01:12:22.948Z,0
2022-09-11T01:18:45.813Z,0
2022-09-11T01:25:05.746Z,0
2022-09-11T01:31:28.906Z,0
2022-09-11T01:37:48.913Z,0
2022-09-11T01:44:11.820Z,0
2022-09-11T01:50:31.780Z,0
2022-09-11T01:56:54.767Z,0
2022-09-11T02:03:14.742Z,0
2022-09-11T02:09:37.910Z,0
2022-09-11T02:15:57.764Z,0
2022-09-11T02:22:20.813Z,0
2022-09-11T02:28:40.817Z,0
2022-09-11T02:35:03.920Z,0
2022-09-11T02:41:23.944Z,0
2022-09-11T02:47:46.820Z,0
2022-09-11T02:54:06.759Z,0
2022-09-11T03:00:29.902Z,0
2022-09-11T03:06:49.824Z,0
2022-09-11T03:13:12.741Z,0
2022-09-11T03:36:01.265Z,0
2022-09-11T03:42:20.810Z,0
2022-09-11T03:48:43.978Z,0
2022-09-11T03:55:03.776Z,0
2022-09-11T04:01:26.802Z,0
2022-09-11T04:07:46.741Z,0
2022-09-11T04:14:09.778Z,0
2022-09-11T04:20:29.823Z,0
2022-09-11T04:26:55.296Z,0
2022-09-11T04:33:12.813Z,0
2022-09-11T04:39:35.917Z,0
2022-09-11T04:45:55.760Z,0
2022-09-11T04:52:18.827Z,0
2022-09-11T04:58:38.850Z,0
2022-09-11T05:05:01.809Z,0
2022-09-11T05:11:21.766Z,0
2022-09-11T05:17:44.765Z,0
2022-09-11T05:24:04.902Z,0
2022-09-11T05:30:27.845Z,0
2022-09-11T05:36:47.887Z,0
2022-09-11T05:43:10.802Z,0
2022-09-11T05:49:30.907Z,0
2022-09-11T05:55:53.793Z,5.62
2022-09-11T06:02:13.816Z,0
2022-09-11T06:08:36.917Z,0
2022-09-11T06:14:56.836Z,0
2022-09-11T06:21:19.891Z,0
2022-09-11T06:27:39.826Z,0
2022-09-11T06:34:02.775Z,0
2022-09-11T06:40:22.755Z,0
2022-09-11T06:46:45.774Z,5.62
2022-09-11T06:53:05.772Z,11.25
2022-09-11T06:59:28.780Z,11.25
2022-09-11T07:05:48.834Z,16.88
2022-09-11T07:12:11.849Z,11.25
2022-09-11T07:18:31.825Z,5.62
2022-09-11T07:24:54.853Z,5.62
2022-09-11T07:31:18.655Z,11.25
2022-09-11T07:37:37.798Z,16.88
2022-09-11T07:43:59.121Z,16.88
2022-09-11T07:50:21.842Z,11.25
2022-09-11T07:56:41.825Z,16.88
2022-09-11T08:03:04.812Z,22.5
2022-09-11T08:09:24.752Z,39.38
2022-09-11T08:15:47.766Z,50.62
2022-09-11T08:22:07.773Z,33.75
2022-09-11T08:46:01.811Z,45
2022-09-11T08:52:24.745Z,33.75
2022-09-11T08:58:44.757Z,45
2022-09-11T09:05:07.767Z,56.25
2022-09-11T09:11:27.733Z,78.75
2022-09-11T09:17:50.750Z,84.38
2022-09-11T09:24:10.761Z,67.5
2022-09-11T09:30:33.760Z,45
2022-09-11T09:36:53.746Z,50.62
2022-09-11T09:43:16.754Z,73.12
2022-09-11T09:49:36.796Z,50.62
2022-09-11T09:55:59.735Z,45
2022-09-11T10:02:19.842Z,73.12
2022-09-11T10:08:42.853Z,84.38
2022-09-11T10:15:02.781Z,84.38
2022-09-11T10:21:25.803Z,90
2022-09-11T10:27:45.777Z,95.62
2022-09-11T10:34:08.795Z,101.25
2022-09-11T10:40:28.778Z,129.38
2022-09-11T10:46:52.525Z,106.88
2022-09-11T10:53:12.788Z,112.5
2022-09-11T10:59:35.811Z,118.12
2022-09-11T11:05:55.809Z,84.38
2022-09-11T11:12:18.736Z,101.25
2022-09-11T11:18:38.822Z,73.12
2022-09-11T11:25:01.740Z,56.25
2022-09-11T11:31:21.805Z,135
2022-09-11T11:37:44.793Z,135
2022-09-11T11:44:04.756Z,67.5
2022-09-11T11:50:31.184Z,56.25
2022-09-11T11:56:47.785Z,123.75
2022-09-11T12:03:14.794Z,50.62
2022-09-11T12:09:34.773Z,135
2022-09-11T12:15:57.948Z,73.12
2022-09-11T12:22:17.801Z,157.5
2022-09-11T12:28:40.765Z,140.62
2022-09-11T12:35:01.031Z,157.5
2022-09-11T12:41:23.818Z,90
2022-09-11T12:47:43.747Z,151.88
2022-09-11T12:54:06.860Z,118.12
2022-09-11T13:00:26.803Z,151.88
2022-09-11T13:06:49.746Z,90
2022-09-11T13:13:09.791Z,78.75
2022-09-11T13:19:32.737Z,129.38
2022-09-11T13:25:52.787Z,45
2022-09-11T13:32:15.771Z,50.62
2022-09-11T13:38:35.774Z,123.75
2022-09-11T13:44:58.789Z,118.12
2022-09-11T14:08:24.742Z,95.62
2022-09-11T14:14:42.759Z,90
2022-09-11T14:21:05.771Z,90
2022-09-11T14:27:25.792Z,84.38
2022-09-11T14:33:48.735Z,78.75
2022-09-11T14:40:08.810Z,45
2022-09-11T14:46:31.782Z,56.25
2022-09-11T14:52:51.759Z,50.62
2022-09-11T14:59:14.733Z,73.12
2022-09-11T15:05:34.847Z,73.12
2022-09-11T15:11:57.759Z,73.12
2022-09-11T15:18:17.733Z,73.12
2022-09-11T15:24:40.764Z,73.12
2022-09-11T15:31:00.775Z,67.5
2022-09-11T15:37:23.772Z,67.5
2022-09-11T15:43:43.882Z,73.12
2022-09-11T15:50:06.740Z,67.5
2022-09-11T15:56:26.735Z,67.5
2022-09-11T16:02:49.812Z,61.88
2022-09-11T16:09:09.744Z,56.25
2022-09-11T16:15:32.790Z,56.25
2022-09-11T16:21:52.784Z,56.25
2022-09-11T16:28:15.768Z,50.62
2022-09-11T16:34:35.781Z,45
2022-09-11T16:40:58.774Z,39.38
2022-09-11T16:47:18.770Z,33.75
2022-09-11T16:53:41.791Z,28.12
2022-09-11T17:00:01.786Z,28.12
2022-09-11T17:06:24.780Z,22.5
2022-09-11T17:12:44.785Z,16.88
2022-09-11T17:19:07.812Z,11.25
2022-09-11T17:25:27.735Z,11.25
2022-09-11T17:32:01.230Z,5.62
2022-09-11T17:38:10.768Z,5.62
2022-09-11T17:44:33.733Z,0
2022-09-11T17:50:53.771Z,0
2022-09-11T17:57:16.774Z,0
2022-09-11T18:03:36.767Z,0
2022-09-11T18:09:59.810Z,0
2022-09-11T18:16:19.835Z,0
2022-09-11T18:22:42.780Z,0
2022-09-11T18:29:02.771Z,0
2022-09-11T18:35:25.771Z,0
2022-09-11T18:41:45.769Z,0
2022-09-11T18:48:08.722Z,0
2022-09-11T18:54:28.834Z,0
2022-09-11T19:00:51.856Z,0
2022-09-11T19:07:11.758Z,0
2022-09-11T19:13:34.861Z,0
2022-09-11T19:19:54.751Z,0
2022-09-11T19:36:04.579Z,0
2022-09-11T19:42:24.904Z,0
2022-09-11T19:48:47.748Z,0
2022-09-11T19:55:07.795Z,0
2022-09-11T20:01:30.736Z,0
2022-09-11T20:07:50.757Z,0
2022-09-11T20:14:13.794Z,0
2022-09-11T20:20:33.746Z,0
2022-09-11T20:26:56.764Z,0
2022-09-11T20:33:16.789Z,0
2022-09-11T20:39:39.819Z,0
2022-09-11T20:46:00.470Z,0
2022-09-11T20:52:22.745Z,0
2022-09-11T20:58:42.802Z,0
2022-09-11T21:05:05.718Z,0
2022-09-11T21:11:25.802Z,0
2022-09-11T21:17:48.721Z,0
2022-09-11T21:24:08.761Z,0
2022-09-11T21:30:31.789Z,0
2022-09-11T21:36:51.770Z,0
2022-09-11T21:43:14.775Z,0
2022-09-11T21:49:34.755Z,0
2022-09-11T21:55:57.740Z,0
2022-09-11T22:20:11.744Z,0
2022-09-11T22:26:31.733Z,0
2022-09-11T22:32:54.817Z,0
2022-09-11T22:39:14.854Z,0
2022-09-11T22:45:37.896Z,0
2022-09-11T22:51:57.813Z,0
2022-09-11T22:58:20.899Z,0
2022-09-11T23:04:40.836Z,0
2022-09-11T23:11:03.832Z,0
2022-09-11T23:17:23.867Z,0
2022-09-11T23:23:46.811Z,0
2022-09-11T23:30:06.825Z,0
2022-09-11T23:36:29.830Z,0
2022-09-11T23:42:49.840Z,0
2022-09-11T23:49:12.852Z,0
2022-09-11T23:55:32.827Z,0
